This is the latest recevied weather packets stored in our database for station/object TG8AKV-17. If no packets are shown the sender has not sent any weather packets the latest 10 day(s).
| Time | Temp. | Humidity | Pressure | Rain* | Wind** | Luminosity | Snow |
|---|---|---|---|---|---|---|---|
| 1778005075 | 22.78° C | 53% | 1016 hPa | 0 mm | - | - | - |
| 1778004475 | 22.78° C | 57% | 1016 hPa | 0 mm | - | - | - |
| 1778003874 | 22.22° C | 61% | 1016 hPa | 0 mm | - | - | - |
| 1778003273 | 18.33° C | 86% | 1016 hPa | 0 mm | - | - | - |
| 1778002673 | 18.33° C | 85% | 1016 hPa | 0 mm | - | - | - |
| 1778002072 | 18.89° C | 83% | 1016 hPa | 0 mm | - | - | - |
| 1778001472 | 18.89° C | 81% | 1016 hPa | 0 mm | - | - | - |
| 1778000871 | 18.89° C | 78% | 1016 hPa | 0 mm | - | - | - |
| 1777999670 | 18.33° C | 80% | 1016 hPa | 0 mm | - | - | - |
| 1777999069 | 17.78° C | 85% | 1016 hPa | 0 mm | - | - | - |
| 1777998469 | 17.78° C | 83% | 1017 hPa | 0 mm | - | - | - |
| 1777997868 | 17.78° C | 81% | 1017 hPa | 0 mm | - | - | - |
| 1777997268 | 17.78° C | 81% | 1017 hPa | 0 mm | - | - | - |
| 1777996667 | 16.67° C | 88% | 1017 hPa | 0 mm | - | - | - |
| 1777996066 | 15° C | 83% | 1017 hPa | 0 mm | - | - | - |
| 1777995466 | 15° C | 84% | 1017 hPa | 0 mm | - | - | - |
| 1777994865 | 15.56° C | 83% | 1017 hPa | 0 mm | - | - | - |
| 1777994265 | 15.56° C | 85% | 1017 hPa | 0 mm | - | - | - |
| 1777993664 | 16.11° C | 85% | 1017 hPa | 0 mm | - | - | - |
| 1777993063 | 16.11° C | 85% | 1017 hPa | 0 mm | - | - | - |
| 1777992463 | 15.56° C | 86% | 1017 hPa | 0 mm | - | - | - |
| 1777991862 | 15.56° C | 86% | 1017 hPa | 0 mm | - | - | - |
| 1777991262 | 15.56° C | 87% | 1017 hPa | 0 mm | - | - | - |
| 1777990661 | 15.56° C | 85% | 1017 hPa | 0 mm | - | - | - |
| 1777990060 | 15.56° C | 81% | 1017 hPa | 0 mm | - | - | - |
* Rain latest hour (hover to see other rain measurements)
** Current wind speed in m/s (hover to see current wind gust speed)